createdAt,value
2023-05-13T00:00:02.200Z,99.43
2023-05-13T00:05:02.658Z,99.55
2023-05-13T00:10:02.574Z,99.32
2023-05-13T00:15:01.940Z,99.24
2023-05-13T00:20:02.521Z,99.38
2023-05-13T00:25:02.290Z,99.29
2023-05-13T00:30:02.512Z,99.15
2023-05-13T00:35:02.301Z,99.27
2023-05-13T00:40:01.557Z,99.15
2023-05-13T00:45:02.767Z,98.96
2023-05-13T00:50:02.151Z,99.17
2023-05-13T00:55:02.156Z,99.14
2023-05-13T01:00:01.772Z,99.35
2023-05-13T01:05:02.282Z,99.21
2023-05-13T01:10:02.377Z,98.96
2023-05-13T01:15:02.290Z,98.85
2023-05-13T01:20:02.230Z,98.85
2023-05-13T01:25:02.674Z,98.94
2023-05-13T01:30:10.587Z,98.85
2023-05-13T01:35:02.772Z,99
2023-05-13T01:40:07.495Z,99.13
2023-05-13T01:45:01.904Z,98.9
2023-05-13T01:50:01.818Z,99.13
2023-05-13T01:55:01.729Z,99.14
2023-05-13T02:00:02.016Z,99
2023-05-13T02:05:02.229Z,99.11
2023-05-13T02:10:01.785Z,99.24
2023-05-13T02:15:01.931Z,98.92
2023-05-13T02:20:01.863Z,99.15
2023-05-13T02:25:02.849Z,100.26
2023-05-13T02:30:02.848Z,99.47
2023-05-13T02:35:02.565Z,99.23
2023-05-13T02:40:01.535Z,99.69
2023-05-13T02:45:01.540Z,99.84
2023-05-13T02:50:01.962Z,99.79
2023-05-13T02:55:02.200Z,99.92
2023-05-13T03:00:02.159Z,99.82
2023-05-13T03:05:02.096Z,99.51
2023-05-13T03:10:01.744Z,99.31
2023-05-13T03:15:01.869Z,99.74
2023-05-13T03:20:01.861Z,99.88
2023-05-13T03:25:01.948Z,99.72
2023-05-13T03:30:02.006Z,99.89
2023-05-13T03:35:02.084Z,99.86
2023-05-13T03:40:01.272Z,99.69
2023-05-13T03:45:01.351Z,99.82
2023-05-13T03:50:01.690Z,99.43
2023-05-13T03:55:02.092Z,99.54
2023-05-13T04:00:02.111Z,99.72
2023-05-13T04:05:02.134Z,100.05
2023-05-13T04:10:01.941Z,100.01
2023-05-13T04:15:02.048Z,99.63
2023-05-13T04:20:01.273Z,100.02
2023-05-13T04:25:01.626Z,100.71
2023-05-13T04:30:02.022Z,100.5
2023-05-13T04:35:02.296Z,100.11
2023-05-13T04:40:02.021Z,100.29
2023-05-13T04:45:01.809Z,100.03
2023-05-13T04:50:02.065Z,100.11
2023-05-13T04:55:02.090Z,100.46
2023-05-13T05:00:01.381Z,100.83
2023-05-13T05:05:01.767Z,100.88
2023-05-13T05:10:02.051Z,100.78
2023-05-13T05:15:01.375Z,100.72
2023-05-13T05:20:02.076Z,100.4
2023-05-13T05:25:02.059Z,100.25
2023-05-13T05:30:01.983Z,100.31
2023-05-13T05:35:01.290Z,100.43
2023-05-13T05:40:01.430Z,100.57
2023-05-13T05:45:01.528Z,100.66
2023-05-13T05:50:01.845Z,100.58
2023-05-13T05:55:01.998Z,100.07
2023-05-13T06:00:02.178Z,99.73
2023-05-13T06:05:01.910Z,98.95
2023-05-13T06:10:01.987Z,98.71
2023-05-13T06:15:02.139Z,97.54
2023-05-13T06:20:02.033Z,96.52
2023-05-13T06:25:02.080Z,97.15
2023-05-13T06:30:02.120Z,93.69
2023-05-13T06:35:01.293Z,95.21
2023-05-13T06:40:01.574Z,92.9
2023-05-13T06:45:01.817Z,92.65
2023-05-13T06:50:01.834Z,91.39
2023-05-13T06:55:01.890Z,92.32
2023-05-13T07:00:02.183Z,90.26
2023-05-13T07:05:02.234Z,89.92
2023-05-13T07:10:02.178Z,90.91
2023-05-13T07:15:02.172Z,90.49
2023-05-13T07:20:01.423Z,92.42
2023-05-13T07:25:01.276Z,91.07
2023-05-13T07:30:01.901Z,89.34
2023-05-13T07:35:02.024Z,87.87
2023-05-13T07:40:01.323Z,90.34
2023-05-13T07:45:01.746Z,89.26
2023-05-13T07:50:02.029Z,89.36
2023-05-13T07:55:02.088Z,88.73
2023-05-13T08:00:01.515Z,87.21
2023-05-13T08:05:02.293Z,87.21
2023-05-13T08:10:02.103Z,88.79
2023-05-13T08:15:01.283Z,87.78
2023-05-13T08:20:01.671Z,86.42
2023-05-13T08:25:01.962Z,85.98
2023-05-13T08:30:01.963Z,83.61
2023-05-13T08:35:01.898Z,83.89
2023-05-13T08:40:01.984Z,84.02
2023-05-13T08:45:02.033Z,81.96
2023-05-13T08:50:02.041Z,82.07
2023-05-13T08:55:02.105Z,82.25
2023-05-13T09:00:02.131Z,78.7
2023-05-13T09:05:02.288Z,72.85
2023-05-13T09:10:01.341Z,74.63
2023-05-13T09:15:01.615Z,76.16
2023-05-13T09:20:01.816Z,75.52
2023-05-13T09:25:01.321Z,77.36
2023-05-13T09:30:01.728Z,73.05
2023-05-13T09:35:01.967Z,72.08
2023-05-13T09:40:01.602Z,73.85
2023-05-13T09:45:01.679Z,66.03
2023-05-13T09:50:02.102Z,66.77
2023-05-13T09:55:01.970Z,70.11
2023-05-13T10:00:01.845Z,70.4
2023-05-13T10:05:02.016Z,68.53
2023-05-13T10:10:01.479Z,69.04
2023-05-13T10:15:02.105Z,68.63
2023-05-13T10:20:02.037Z,69.14
2023-05-13T10:25:01.272Z,70.09
2023-05-13T10:30:03.406Z,67.68
2023-05-13T10:35:01.847Z,64.61
2023-05-13T10:40:01.872Z,62.8
2023-05-13T10:45:02.158Z,65.55
2023-05-13T10:50:01.376Z,60.26
2023-05-13T10:55:01.725Z,64.61
2023-05-13T11:00:02.018Z,67.93
2023-05-13T11:05:01.653Z,61.01
2023-05-13T11:10:02.245Z,58.97
2023-05-13T11:15:01.633Z,58.41
2023-05-13T11:20:01.607Z,61.62
2023-05-13T11:25:02.075Z,66.14
2023-05-13T11:30:01.896Z,79.83
2023-05-13T11:35:02.096Z,88.76
2023-05-13T11:40:02.254Z,94.41
2023-05-13T11:45:01.544Z,94.34
2023-05-13T11:50:01.980Z,96.07
2023-05-13T11:55:02.086Z,97.48
2023-05-13T12:00:02.144Z,98.56
2023-05-13T12:05:01.690Z,99.37
2023-05-13T12:10:02.253Z,98.67
2023-05-13T12:15:01.781Z,98.7
2023-05-13T12:20:01.314Z,98.83
2023-05-13T12:25:02.082Z,98.52
2023-05-13T12:30:01.630Z,99.37
2023-05-13T12:35:02.080Z,98.36
2023-05-13T12:40:02.142Z,100.23
2023-05-13T12:45:01.661Z,98.89
2023-05-13T12:50:02.216Z,99.59
2023-05-13T12:55:01.457Z,98.42
2023-05-13T13:00:02.167Z,98.18
2023-05-13T13:05:01.357Z,98.74
2023-05-13T13:10:01.375Z,99.24
2023-05-13T13:15:02.082Z,99.24
2023-05-13T13:20:01.471Z,98.83
2023-05-13T13:25:01.752Z,97.97
2023-05-13T13:30:02.028Z,96.17
2023-05-13T13:35:01.381Z,98.66
2023-05-13T13:40:01.852Z,97.19
2023-05-13T13:45:02.045Z,97.07
2023-05-13T13:50:01.412Z,97.59
2023-05-13T13:55:01.933Z,95.04
2023-05-13T14:00:02.113Z,94.37
2023-05-13T14:05:01.496Z,94.47
2023-05-13T14:10:02.006Z,91.21
2023-05-13T14:15:02.186Z,92.45
2023-05-13T14:20:01.706Z,88.23
2023-05-13T14:25:01.785Z,87.79
2023-05-13T14:30:01.964Z,85.21
2023-05-13T14:35:02.137Z,84.85
2023-05-13T14:40:01.333Z,88.44
2023-05-13T14:45:01.744Z,89.81
2023-05-13T14:50:01.972Z,88.99
2023-05-13T14:55:02.091Z,89
2023-05-13T15:00:01.986Z,84.85
2023-05-13T15:05:02.131Z,80.91
2023-05-13T15:10:01.507Z,83.87
2023-05-13T15:15:01.841Z,82.02
2023-05-13T15:20:02.264Z,83.05
2023-05-13T15:25:02.268Z,83.02
2023-05-13T15:30:01.807Z,78.8
2023-05-13T15:35:01.320Z,77.89
2023-05-13T15:40:01.714Z,79.86
2023-05-13T15:45:01.898Z,77.29
2023-05-13T15:50:01.945Z,76.29
2023-05-13T15:55:01.997Z,76.64
2023-05-13T16:00:01.972Z,77.37
2023-05-13T16:05:01.344Z,77.47
2023-05-13T16:10:01.805Z,78.25
2023-05-13T16:15:01.710Z,78.68
2023-05-13T16:20:02.221Z,71.79
2023-05-13T16:25:01.303Z,79.64
2023-05-13T16:30:02.112Z,78.96
2023-05-13T16:35:01.589Z,80.3
2023-05-13T16:40:01.799Z,80.08
2023-05-13T16:45:01.831Z,79.49
2023-05-13T16:50:01.949Z,86.46
2023-05-13T16:55:02.063Z,83.92
2023-05-13T17:00:01.435Z,81.48
2023-05-13T17:05:01.856Z,85.24
2023-05-13T17:10:02.095Z,82.43
2023-05-13T17:15:01.298Z,83.44
2023-05-13T17:20:01.695Z,84.13
2023-05-13T17:25:01.869Z,85.19
2023-05-13T17:30:02.088Z,84.49
2023-05-13T17:35:02.192Z,84.99
2023-05-13T17:40:02.100Z,80.81
2023-05-13T17:45:02.340Z,85
2023-05-13T17:50:01.412Z,87.57
2023-05-13T17:55:01.545Z,89.39
2023-05-13T18:00:01.741Z,91.54
2023-05-13T18:05:02.054Z,91.58
2023-05-13T18:10:01.334Z,91.9
2023-05-13T18:15:02.322Z,92.45
2023-05-13T18:20:01.800Z,93.9
2023-05-13T18:25:02.003Z,93.99
2023-05-13T18:30:02.134Z,95.67
2023-05-13T18:35:01.903Z,93.84
2023-05-13T18:40:02.028Z,94.15
2023-05-13T18:45:02.141Z,94.88
2023-05-13T18:50:01.838Z,95.28
2023-05-13T18:55:02.050Z,95.47
2023-05-13T19:00:02.241Z,96.16
2023-05-13T19:05:01.479Z,96.92
2023-05-13T19:10:01.779Z,97.85
2023-05-13T19:15:02.216Z,98.27
2023-05-13T19:20:01.572Z,98.03
2023-05-13T19:25:01.729Z,98.34
2023-05-13T19:30:02.106Z,98.37
2023-05-13T19:35:01.431Z,98.53
2023-05-13T19:40:01.940Z,97.75
2023-05-13T19:45:01.397Z,97.8
2023-05-13T19:50:01.769Z,96.41
2023-05-13T19:55:01.310Z,97.61
2023-05-13T20:00:01.706Z,97.86
2023-05-13T20:05:01.693Z,96.78
2023-05-13T20:10:01.325Z,96.8
2023-05-13T20:15:01.816Z,96.89
2023-05-13T20:20:02.200Z,97.23
2023-05-13T20:25:01.278Z,98.09
2023-05-13T20:30:01.671Z,97.8
2023-05-13T20:35:02.240Z,98.37
2023-05-13T20:40:01.492Z,96.63
2023-05-13T20:45:02.032Z,96.64
2023-05-13T20:50:02.320Z,96.55
2023-05-13T20:55:01.507Z,96.58
2023-05-13T21:00:01.988Z,99.04
2023-05-13T21:05:02.197Z,98.69
2023-05-13T21:10:01.339Z,98.78
2023-05-13T21:15:01.503Z,99.11
2023-05-13T21:20:01.425Z,99.14
2023-05-13T21:25:01.705Z,99.2
2023-05-13T21:30:01.979Z,99.2
2023-05-13T21:35:02.234Z,99.29
2023-05-13T21:40:01.992Z,97.27
2023-05-13T21:45:02.308Z,97.53
2023-05-13T21:50:02.240Z,97.79
2023-05-13T21:55:01.503Z,97.89
2023-05-13T22:00:02.016Z,97.76
2023-05-13T22:05:01.458Z,97.73
2023-05-13T22:10:01.967Z,98.23
2023-05-13T22:15:02.028Z,99.95
2023-05-13T22:20:01.381Z,98.34
2023-05-13T22:25:01.805Z,99.76
2023-05-13T22:30:02.077Z,99.67
2023-05-13T22:35:01.371Z,97.8
2023-05-13T22:40:01.288Z,98.26
2023-05-13T22:45:01.651Z,99.84
2023-05-13T22:50:01.390Z,98.23
2023-05-13T22:55:02.127Z,99.78
2023-05-13T23:00:01.548Z,97.79
2023-05-13T23:05:01.694Z,99.36
2023-05-13T23:10:02.148Z,99.27
2023-05-13T23:15:02.049Z,99.27
2023-05-13T23:20:02.294Z,99.69
2023-05-13T23:25:01.442Z,99.59
2023-05-13T23:30:01.865Z,99.76
2023-05-13T23:35:02.253Z,99.68
2023-05-13T23:40:02.210Z,98.17
2023-05-13T23:45:01.800Z,98.45
2023-05-13T23:50:02.146Z,98.17
2023-05-13T23:55:02.153Z,97.92
